Time;durP1;ratioP1;P1;durP2;ratioP2;P2;SDS_P1;SDS_P2;PMS_P1;PMS_P2;Temp;Humidity;BMP_temperature;BMP_pressure;BME280_temperature;BME280_humidity;BME280_pressure;Samples;Min_cycle;Max_cycle;Signal;HPM_P1;HPM_P2
2022/12/06 00:03:06;;;;;;;87.65;60.33;;;;;;;6.53;100.00;100336.73;2831806;82;21066;-92
2022/12/06 00:07:08;;;;;;;89.55;56.40;;;;;;;6.63;100.00;100350.20;2835310;82;21014;-93
2022/12/06 00:11:14;;;;;;;84.03;57.70;;;;;;;6.63;100.00;100353.33;2841155;82;21043;-91
2022/12/06 00:15:15;;;;;;;;;;;;;;;6.61;100.00;100375.88;2856199;82;21062;-91
2022/12/06 00:19:20;;;;;;;89.60;56.77;;;;;;;6.63;100.00;100383.23;2855446;82;20135;-91
2022/12/06 00:23:21;;;;;;;92.30;59.77;;;;;;;6.70;100.00;100395.14;2842571;82;21038;-90
2022/12/06 00:27:22;;;;;;;88.85;58.80;;;;;;;6.47;100.00;100403.20;2863571;82;21511;-90
2022/12/06 00:31:29;;;;;;;84.80;53.33;;;;;;;6.37;100.00;100400.73;2839760;82;21055;-90
2022/12/06 00:35:30;;;;;;;99.70;57.25;;;;;;;6.36;100.00;100408.29;2838437;82;21413;-92
2022/12/06 00:39:32;;;;;;;86.63;57.48;;;;;;;6.35;100.00;100407.45;2864438;82;20996;-90
2022/12/06 00:43:34;;;;;;;92.05;58.48;;;;;;;6.32;100.00;100402.83;2840364;82;20987;-90
2022/12/06 00:47:35;;;;;;;92.37;54.38;;;;;;;6.39;100.00;100401.03;2864374;82;21058;-90
2022/12/06 00:51:38;;;;;;;86.95;54.38;;;;;;;6.52;100.00;100389.70;2837492;83;21593;-91
2022/12/06 00:55:39;;;;;;;84.90;55.70;;;;;;;6.72;100.00;100377.84;2849121;82;21082;-91
2022/12/06 00:59:40;;;;;;;84.05;54.75;;;;;;;6.89;100.00;100374.12;2847297;82;21054;-91
2022/12/06 01:03:44;;;;;;;88.85;59.75;;;;;;;7.02;100.00;100353.47;2843259;83;21009;-89
2022/12/06 01:07:45;;;;;;;82.97;56.58;;;;;;;7.07;100.00;100338.13;2798660;84;21521;-91
2022/12/06 01:11:46;;;;;;;81.25;57.75;;;;;;;7.11;100.00;100333.86;2853248;82;21052;-90
2022/12/06 01:15:47;;;;;;;90.22;54.55;;;;;;;7.21;100.00;100334.59;2793741;83;21068;-91
2022/12/06 01:19:49;;;;;;;85.10;56.33;;;;;;;7.25;100.00;100329.45;2850255;82;20999;-89
2022/12/06 01:23:53;;;;;;;79.40;52.30;;;;;;;7.28;100.00;100324.81;2840333;83;21106;-89
2022/12/06 01:27:54;;;;;;;87.60;57.98;;;;;;;7.34;100.00;100325.34;2854101;82;21056;-91
2022/12/06 01:31:55;;;;;;;91.42;61.15;;;;;;;7.42;100.00;100313.75;2853520;82;21027;-91
2022/12/06 01:35:56;;;;;;;91.63;57.25;;;;;;;7.50;100.00;100307.94;2851825;82;21764;-91
2022/12/06 01:39:57;;;;;;;93.67;54.45;;;;;;;7.53;100.00;100294.48;2814571;83;21011;-90
2022/12/06 01:43:59;;;;;;;86.97;51.98;;;;;;;7.49;100.00;100291.22;2853628;82;21862;-91
2022/12/06 01:48:00;;;;;;;85.10;56.68;;;;;;;7.41;100.00;100281.62;2847121;82;21094;-91
2022/12/06 01:52:06;;;;;;;91.08;55.70;;;;;;;7.43;100.00;100277.06;2812735;84;21043;-90
2022/12/06 01:56:08;;;;;;;;;;;;;;;7.47;100.00;100270.63;2805302;83;21061;-90
2022/12/06 02:00:10;;;;;;;70.90;45.03;;;;;;;7.39;100.00;100275.13;2789768;83;20111;-91
2022/12/06 02:04:11;;;;;;;82.30;52.60;;;;;;;7.25;100.00;100273.89;2822393;83;21588;-91
2022/12/06 02:08:13;;;;;;;78.62;48.65;;;;;;;6.99;100.00;100271.23;2804346;84;21065;-90
2022/12/06 02:12:15;;;;;;;82.15;53.73;;;;;;;6.80;100.00;100264.98;2828198;83;21113;-90
2022/12/06 02:16:38;;;;;;;89.15;53.78;;;;;;;6.81;100.00;100262.70;2810253;83;21605;-91
2022/12/06 02:20:54;;;;;;;87.40;57.27;;;;;;;6.83;100.00;100258.16;2801248;84;21042;-90
2022/12/06 02:25:38;;;;;;;85.55;55.58;;;;;;;6.70;100.00;100262.96;2803799;83;22161;-89
2022/12/06 02:30:09;;;;;;;94.07;56.40;;;;;;;6.47;100.00;100267.10;2817345;83;21062;-90
2022/12/06 02:34:25;;;;;;;99.20;59.77;;;;;;;6.38;100.00;100259.75;2794458;83;21034;-90
2022/12/06 02:38:50;;;;;;;81.25;56.08;;;;;;;6.40;100.00;100254.76;2812141;83;21053;-89
2022/12/06 02:43:00;;;;;;;91.90;56.77;;;;;;;6.57;100.00;100250.17;2716012;85;21106;-89
2022/12/06 02:47:05;;;;;;;86.85;56.65;;;;;;;6.74;100.00;100248.21;2748537;84;21153;-90
2022/12/06 02:51:12;;;;;;;88.03;56.58;;;;;;;6.82;100.00;100239.28;2785235;84;21005;-89
2022/12/06 02:55:16;;;;;;;82.40;55.83;;;;;;;6.91;100.00;100229.88;2817365;83;21514;-90
2022/12/06 02:59:18;;;;;;;78.70;52.15;;;;;;;6.94;100.00;100228.35;2806135;83;21054;-90
2022/12/06 03:03:45;;;;;;;91.75;54.15;;;;;;;7.02;100.00;100237.95;2797752;83;21003;-90
2022/12/06 03:07:48;;;;;;;84.65;52.83;;;;;;;6.94;100.00;100237.61;2798309;83;21042;-89
2022/12/06 03:12:09;;;;;;;80.87;54.27;;;;;;;7.02;100.00;100236.63;2793808;83;21002;-91
2022/12/06 03:16:25;;;;;;;84.40;56.15;;;;;;;6.93;100.00;100240.74;2794557;83;21042;-90
2022/12/06 03:20:44;;;;;;;89.10;54.43;;;;;;;6.76;100.00;100239.70;2798328;83;21014;-90
2022/12/06 03:24:46;;;;;;;87.62;55.28;;;;;;;6.71;100.00;100236.03;2755612;83;21055;-89
2022/12/06 03:28:52;;;;;;;90.05;59.85;;;;;;;6.67;100.00;100237.19;2804761;83;21038;-91
2022/12/06 03:32:54;;;;;;;70.25;47.00;;;;;;;6.66;100.00;100232.37;2802355;83;21537;-89
2022/12/06 03:36:58;;;;;;;85.67;56.50;;;;;;;6.67;100.00;100229.27;2824255;83;21077;-90
2022/12/06 03:41:04;;;;;;;85.15;54.30;;;;;;;6.68;100.00;100234.46;2800289;83;21167;-91
2022/12/06 03:45:07;;;;;;;82.55;49.65;;;;;;;6.75;100.00;100232.23;2804990;83;21018;-89
2022/12/06 03:49:23;;;;;;;85.40;53.17;;;;;;;6.75;100.00;100215.53;2771787;84;21026;-92
2022/12/06 03:53:24;;;;;;;75.55;50.88;;;;;;;6.82;100.00;100207.09;2776182;84;21358;-90
2022/12/06 03:57:25;;;;;;;80.40;50.98;;;;;;;6.72;100.00;100211.29;2739754;86;21556;-91
2022/12/06 04:01:27;;;;;;;84.55;51.33;;;;;;;6.66;100.00;100215.19;2780708;85;21498;-91
2022/12/06 04:05:28;;;;;;;82.02;49.23;;;;;;;6.67;100.00;100212.91;2759279;85;21062;-88
2022/12/06 04:13:49;;;;;;;73.50;42.85;;;;;;;6.76;100.00;100211.94;2823176;83;21299;-88
2022/12/06 04:26:29;;;;;;;71.87;47.33;;;;;;;6.81;100.00;100215.98;2839539;83;21117;-91
2022/12/06 04:39:09;;;;;;;56.83;33.00;;;;;;;6.82;100.00;100216.80;2856805;82;21081;-89
2022/12/06 04:47:30;;;;;;;56.83;34.92;;;;;;;6.75;100.00;100204.96;2849287;82;21046;-89
2022/12/06 04:51:32;;;;;;;55.33;38.38;;;;;;;6.82;100.00;100199.16;2774524;83;21044;-88
2022/12/06 04:55:33;;;;;;;55.30;34.75;;;;;;;6.78;100.00;100202.11;2840464;82;21002;-91
2022/12/06 04:59:34;;;;;;;47.00;32.33;;;;;;;6.70;100.00;100203.94;2837671;83;21031;-89
2022/12/06 05:03:36;;;;;;;43.85;28.35;;;;;;;6.66;100.00;100199.33;2844010;83;21046;-92
2022/12/06 05:07:37;;;;;;;28.42;20.10;;;;;;;6.63;100.00;100194.73;2846413;83;21126;-91
2022/12/06 05:11:39;;;;;;;18.45;14.45;;;;;;;6.60;100.00;100194.45;2809085;83;21574;-90
2022/12/06 05:15:58;;;;;;;20.85;14.10;;;;;;;6.50;100.00;100191.58;2835520;83;21054;-90
2022/12/06 05:19:59;;;;;;;16.57;11.22;;;;;;;6.35;100.00;100192.13;2787331;84;20954;-89
2022/12/06 05:24:01;;;;;;;13.45;10.18;;;;;;;6.11;100.00;100186.19;2739692;85;21329;-91
2022/12/06 05:28:02;;;;;;;12.00;9.15;;;;;;;6.00;100.00;100189.48;2770536;84;21009;-91
2022/12/06 05:32:04;;;;;;;13.70;8.90;;;;;;;5.91;100.00;100191.38;2820083;84;21523;-90
2022/12/06 05:36:14;;;;;;;15.25;9.33;;;;;;;5.75;100.00;100191.98;2820493;84;21055;-89
2022/12/06 05:40:15;;;;;;;10.82;8.83;;;;;;;5.61;100.00;100189.76;2812262;84;21511;-88
2022/12/06 05:44:17;;;;;;;12.43;8.58;;;;;;;5.41;100.00;100177.79;2819834;84;21050;-89
2022/12/06 05:48:18;;;;;;;11.68;9.13;;;;;;;5.27;100.00;100181.29;2821561;84;21523;-89
2022/12/06 05:52:19;;;;;;;9.55;7.75;;;;;;;5.23;100.00;100178.47;2813012;84;21389;-89
2022/12/06 05:56:20;;;;;;;16.93;11.15;;;;;;;5.16;100.00;100166.13;2813484;84;21473;-89
2022/12/06 06:00:22;;;;;;;13.13;11.15;;;;;;;5.15;100.00;100163.11;2819587;83;21071;-89
2022/12/06 06:04:23;;;;;;;12.65;8.68;;;;;;;5.20;100.00;100157.53;2801062;83;21011;-89
2022/12/06 06:08:25;;;;;;;12.18;9.58;;;;;;;5.19;100.00;100158.02;2796082;84;21059;-89
2022/12/06 06:12:27;;;;;;;12.07;7.00;;;;;;;5.15;100.00;100168.39;2819783;84;21007;-89
2022/12/06 06:16:28;;;;;;;12.73;9.48;;;;;;;5.04;100.00;100168.18;2817860;84;21522;-89
2022/12/06 06:20:29;;;;;;;17.42;10.03;;;;;;;5.00;100.00;100168.37;2829320;82;21023;-89
2022/12/06 06:24:40;;;;;;;10.13;7.78;;;;;;;5.02;100.00;100180.61;2812482;83;21024;-89
2022/12/06 06:28:41;;;;;;;6.85;6.20;;;;;;;4.99;100.00;100177.67;2853116;82;21072;-89
2022/12/06 06:32:42;;;;;;;7.53;5.92;;;;;;;4.87;100.00;100180.58;2812192;82;21033;-88
2022/12/06 06:36:43;;;;;;;9.65;7.17;;;;;;;4.84;100.00;100172.41;2829297;82;21717;-89
2022/12/06 06:40:45;;;;;;;8.20;6.25;;;;;;;4.85;100.00;100170.60;2846790;82;21061;-89
2022/12/06 06:44:46;;;;;;;7.35;6.28;;;;;;;4.85;100.00;100179.37;2819845;82;21008;-87
2022/12/06 06:48:47;;;;;;;9.75;7.15;;;;;;;4.81;100.00;100182.27;2853012;82;21013;-89
2022/12/06 06:52:48;;;;;;;7.70;6.67;;;;;;;4.89;100.00;100192.36;2856449;82;21089;-89
2022/12/06 06:56:49;;;;;;;11.60;6.70;;;;;;;4.90;100.00;100194.89;2825028;83;21022;-88
2022/12/06 07:00:59;;;;;;;10.25;7.65;;;;;;;4.92;100.00;100185.59;2724098;85;21543;-89
2022/12/06 07:05:01;;;;;;;9.53;6.75;;;;;;;4.82;100.00;100180.02;2794485;83;21035;-88
2022/12/06 07:09:02;;;;;;;9.73;6.83;;;;;;;4.88;100.00;100186.23;2792109;83;21540;-88
2022/12/06 07:13:03;;;;;;;10.78;7.20;;;;;;;4.74;100.00;100186.22;2820483;83;21018;-89
2022/12/06 07:17:04;;;;;;;9.98;7.25;;;;;;;4.74;100.00;100177.83;2800739;83;21026;-89
2022/12/06 07:21:10;;;;;;;9.43;7.50;;;;;;;4.66;100.00;100173.02;2791306;83;21086;-89
2022/12/06 07:25:11;;;;;;;11.55;6.28;;;;;;;4.63;100.00;100178.47;2821525;83;21033;-89
2022/12/06 07:29:13;;;;;;;12.85;8.53;;;;;;;4.61;100.00;100177.72;2744508;82;21077;-89
2022/12/06 07:33:14;;;;;;;8.65;6.17;;;;;;;4.50;100.00;100167.80;2761853;85;21020;-89
2022/12/06 07:37:17;;;;;;;10.58;7.30;;;;;;;4.50;100.00;100177.02;2779745;84;21074;-88
2022/12/06 07:45:40;;;;;;;11.73;7.70;;;;;;;4.42;100.00;100174.84;2772409;85;21061;-89
2022/12/06 07:49:41;;;;;;;12.55;9.15;;;;;;;4.42;100.00;100176.61;2798328;83;21026;-89
2022/12/06 07:53:42;;;;;;;15.65;10.95;;;;;;;4.47;100.00;100165.36;2754471;84;21074;-89
2022/12/06 07:57:44;;;;;;;11.88;8.13;;;;;;;4.55;100.00;100175.45;2788593;84;21185;-89
2022/12/06 08:01:45;;;;;;;11.53;9.05;;;;;;;4.53;100.00;100173.38;2794940;84;21057;-90
2022/12/06 08:05:54;;;;;;;15.72;10.80;;;;;;;4.57;100.00;100174.89;2773616;84;21037;-88
2022/12/06 08:09:55;;;;;;;12.15;8.95;;;;;;;4.63;100.00;100170.56;2766540;85;21642;-88
2022/12/06 08:13:57;;;;;;;12.68;8.40;;;;;;;4.54;100.00;100166.68;2836673;82;21071;-89
2022/12/06 08:17:58;;;;;;;10.53;8.43;;;;;;;4.59;100.00;100157.20;2859109;82;21808;-89
2022/12/06 08:21:59;;;;;;;14.45;10.45;;;;;;;4.50;100.00;100162.54;2834227;82;21115;-89
2022/12/06 08:26:07;;;;;;;12.28;8.20;;;;;;;4.46;100.00;100163.66;2831293;82;21055;-89
2022/12/06 08:30:09;;;;;;;17.07;10.15;;;;;;;4.43;100.00;100169.95;2827282;82;21016;-88
2022/12/06 08:34:12;;;;;;;13.35;9.38;;;;;;;4.47;100.00;100181.61;2828468;82;22165;-89
2022/12/06 08:38:15;;;;;;;16.25;10.72;;;;;;;4.27;100.00;100170.45;2845971;82;21578;-89
2022/12/06 08:42:16;;;;;;;9.68;8.53;;;;;;;4.30;100.00;100158.41;2822514;83;21097;-88
2022/12/06 08:46:17;;;;;;;16.00;12.03;;;;;;;4.26;100.00;100160.85;2829068;82;21563;-89
2022/12/06 08:50:18;;;;;;;13.40;9.83;;;;;;;4.28;100.00;100162.92;2852325;82;21035;-88
2022/12/06 08:54:23;;;;;;;13.32;8.65;;;;;;;4.36;100.00;100173.88;2822241;82;21597;-88
2022/12/06 08:58:24;;;;;;;9.80;7.97;;;;;;;4.42;100.00;100177.92;2798413;83;21022;-90
2022/12/06 09:02:25;;;;;;;12.75;10.63;;;;;;;4.42;100.00;100164.30;2667067;85;21039;-90
2022/12/06 09:06:28;;;;;;;9.40;7.97;;;;;;;4.52;100.00;100167.70;2818127;83;21030;-89
2022/12/06 09:10:29;;;;;;;12.00;8.50;;;;;;;4.62;100.00;100154.83;2742239;85;21011;-90
2022/12/06 09:14:31;;;;;;;8.93;6.75;;;;;;;4.68;100.00;100161.91;2787177;83;21070;-89
2022/12/06 09:18:32;;;;;;;13.80;7.78;;;;;;;4.53;100.00;100172.06;2785713;84;21036;-89
2022/12/06 09:22:33;;;;;;;9.90;6.22;;;;;;;4.54;100.00;100171.12;2801273;83;21514;-89
2022/12/06 09:26:34;;;;;;;7.90;6.90;;;;;;;4.50;100.00;100155.09;2814408;82;21030;-87
2022/12/06 09:30:35;;;;;;;9.93;7.53;;;;;;;4.55;100.00;100143.34;2806424;83;21026;-90
2022/12/06 09:34:37;;;;;;;11.33;7.62;;;;;;;4.62;100.00;100139.02;2768321;85;21094;-89
2022/12/06 09:38:41;;;;;;;12.88;8.83;;;;;;;4.55;100.00;100141.20;2756974;84;21428;-89
2022/12/06 09:42:54;;;;;;;12.03;9.10;;;;;;;4.60;100.00;100143.09;2710382;87;21086;-89
2022/12/06 09:47:01;;;;;;;14.65;8.55;;;;;;;4.55;100.00;100142.52;2780905;84;21102;-90
2022/12/06 09:51:27;;;;;;;12.70;10.10;;;;;;;4.42;100.00;100146.31;2819874;83;21022;-88
2022/12/06 09:55:52;;;;;;;17.05;13.72;;;;;;;4.26;100.00;100138.47;2820554;82;21064;-90
2022/12/06 10:00:07;;;;;;;16.30;11.15;;;;;;;4.18;100.00;100130.18;2745315;85;21071;-89
2022/12/06 10:04:14;;;;;;;13.25;10.03;;;;;;;4.18;100.00;100124.91;2812147;83;21479;-89
2022/12/06 10:09:01;;;;;;;12.20;10.48;;;;;;;4.18;100.00;100127.55;2769446;85;21420;-89
2022/12/06 10:13:08;;;;;;;12.05;9.80;;;;;;;4.16;100.00;100119.72;2820724;83;21090;-89
2022/12/06 10:17:44;;;;;;;12.40;8.23;;;;;;;4.14;100.00;100117.20;2747691;85;21123;-89
2022/12/06 10:22:24;;;;;;;12.77;7.60;;;;;;;4.13;100.00;100110.69;2795076;83;21052;-89
2022/12/06 10:26:48;;;;;;;9.65;7.97;;;;;;;4.14;100.00;100115.88;2689837;86;21059;-89
2022/12/06 10:30:53;;;;;;;8.85;7.92;;;;;;;4.13;100.00;100112.00;2757991;85;21034;-90
2022/12/06 10:34:57;;;;;;;9.58;6.80;;;;;;;4.11;100.00;100112.08;2799463;83;21724;-89
2022/12/06 10:39:23;;;;;;;9.15;7.30;;;;;;;4.04;100.00;100113.38;2807340;83;21098;-89
2022/12/06 10:44:04;;;;;;;8.55;7.75;;;;;;;4.04;100.00;100108.12;2798110;83;21571;-90
2022/12/06 10:48:35;;;;;;;7.75;6.67;;;;;;;4.11;100.00;100105.50;2813350;83;21054;-90
2022/12/06 10:52:49;;;;;;;16.25;9.28;;;;;;;4.17;100.00;100100.84;2659642;88;21083;-88
2022/12/06 10:56:54;;;;;;;10.50;8.65;;;;;;;4.21;100.00;100082.60;2664892;87;21231;-89
2022/12/06 11:01:03;;;;;;;11.48;9.68;;;;;;;4.27;100.00;100082.23;2671875;88;21649;-89
2022/12/06 11:05:13;;;;;;;9.50;6.12;;;;;;;4.30;100.00;100078.09;2677273;87;21077;-89
2022/12/06 11:09:42;;;;;;;8.85;7.15;;;;;;;4.32;100.00;100082.80;2666275;87;21475;-89
2022/12/06 11:14:07;;;;;;;9.90;7.40;;;;;;;4.34;100.00;100086.22;2663438;87;21184;-90
2022/12/06 11:18:14;;;;;;;9.58;7.90;;;;;;;4.41;100.00;100077.00;2653224;88;21138;-89
2022/12/06 11:22:43;;;;;;;;;;;;;;;4.51;100.00;100060.18;2743535;83;21058;-90
2022/12/06 11:26:50;;;;;;;7.05;6.20;;;;;;;4.53;100.00;100049.56;2702024;86;20163;-90
2022/12/06 11:30:54;;;;;;;9.28;8.10;;;;;;;4.55;100.00;100049.00;2794457;83;21581;-90
2022/12/06 11:34:58;;;;;;;9.28;6.58;;;;;;;4.52;100.00;100048.70;2842644;83;21014;-89
2022/12/06 11:39:00;;;;;;;9.50;6.40;;;;;;;4.47;100.00;100041.55;2784409;83;21030;-88
2022/12/06 11:43:05;;;;;;;9.10;6.53;;;;;;;4.54;100.00;100037.59;2817611;81;21068;-89
2022/12/06 11:47:09;;;;;;;7.42;6.72;;;;;;;4.52;100.00;100037.30;2826263;82;21108;-89
2022/12/06 11:51:23;;;;;;;8.08;6.75;;;;;;;4.57;100.00;100036.09;2768088;84;21354;-89
2022/12/06 11:55:33;;;;;;;12.33;8.08;;;;;;;4.48;100.00;100032.71;2768656;84;21017;-89
2022/12/06 11:59:34;;;;;;;11.00;7.28;;;;;;;4.46;100.00;100021.88;2767056;85;21071;-90
2022/12/06 12:03:39;;;;;;;10.85;9.18;;;;;;;4.57;100.00;100027.36;2746120;85;21060;-89
2022/12/06 12:07:44;;;;;;;9.50;7.90;;;;;;;4.58;100.00;100027.73;2747097;85;21098;-91
2022/12/06 12:11:52;;;;;;;8.78;7.85;;;;;;;4.53;100.00;100025.37;2758802;85;21028;-89
2022/12/06 12:15:57;;;;;;;6.35;5.22;;;;;;;4.53;100.00;100024.54;2833264;81;21062;-89
2022/12/06 12:20:08;;;;;;;11.53;8.45;;;;;;;4.62;100.00;100027.05;2856708;82;21122;-89
2022/12/06 12:24:49;;;;;;;10.20;8.43;;;;;;;4.67;100.00;100025.00;2813185;82;21635;-89
2022/12/06 12:29:20;;;;;;;11.35;8.40;;;;;;;4.79;100.00;100017.64;2856463;82;21027;-89
2022/12/06 12:33:25;;;;;;;8.35;6.92;;;;;;;4.75;100.00;100005.60;2849429;82;21043;-88
2022/12/06 12:37:26;;;;;;;11.30;8.38;;;;;;;4.76;100.00;100002.52;2838147;82;21070;-89
2022/12/06 12:41:41;;;;;;;10.80;9.38;;;;;;;4.79;100.00;99998.36;2832611;82;21558;-90
2022/12/06 12:46:06;;;;;;;13.15;8.90;;;;;;;4.79;100.00;99999.68;2833886;82;21100;-90
2022/12/06 12:50:22;;;;;;;13.65;9.58;;;;;;;4.63;100.00;99992.72;2838623;82;21098;-89
2022/12/06 12:54:28;;;;;;;14.15;9.70;;;;;;;4.70;100.00;99992.70;2845196;80;21086;-89
2022/12/06 12:58:29;;;;;;;13.32;9.68;;;;;;;4.73;100.00;99985.09;2803131;83;21038;-90
2022/12/06 13:02:33;;;;;;;16.12;10.58;;;;;;;4.73;100.00;99986.90;2817528;83;21038;-89
2022/12/06 13:06:43;;;;;;;12.60;9.13;;;;;;;4.75;100.00;99983.69;2794032;83;21034;-90
2022/12/06 13:10:48;;;;;;;14.85;9.73;;;;;;;4.73;100.00;99978.50;2799978;80;21011;-89
2022/12/06 13:15:13;;;;;;;13.08;8.93;;;;;;;4.80;100.00;99982.92;2789142;83;21078;-89
2022/12/06 13:19:17;;;;;;;13.83;10.60;;;;;;;4.80;100.00;99976.33;2771897;84;21200;-89
2022/12/06 13:23:23;;;;;;;15.05;11.35;;;;;;;4.82;100.00;99981.03;2817239;83;21014;-89
2022/12/06 13:27:26;;;;;;;;;;;;;;;4.70;100.00;99980.84;2826628;83;21069;-89
2022/12/06 13:31:32;;;;;;;13.32;9.75;;;;;;;4.71;100.00;99968.53;2794617;83;20432;-89
2022/12/06 13:35:42;;;;;;;13.22;10.88;;;;;;;4.74;100.00;99972.29;2816995;82;21050;-89
2022/12/06 13:39:48;;;;;;;15.85;11.43;;;;;;;4.80;100.00;99976.33;2812190;82;21112;-89
2022/12/06 13:43:50;;;;;;;;;;;;;;;4.81;100.00;99970.13;2773291;83;21517;-89
2022/12/06 13:47:51;;;;;;;14.85;12.18;;;;;;;4.75;100.00;99961.30;2789832;83;20116;-89
2022/12/06 13:51:52;;;;;;;15.05;11.25;;;;;;;4.74;100.00;99971.46;2819212;83;21517;-89
2022/12/06 13:56:01;;;;;;;17.15;11.38;;;;;;;4.55;100.00;99968.16;2790953;83;21329;-89
2022/12/06 14:00:08;;;;;;;17.50;13.65;;;;;;;4.65;100.00;99976.83;2809649;83;21021;-89
2022/12/06 14:04:29;;;;;;;43.52;11.85;;;;;;;4.73;100.00;99969.28;2787290;83;21062;-89
2022/12/06 14:08:45;;;;;;;15.43;11.18;;;;;;;4.67;100.00;99969.19;2780736;83;21097;-89
2022/12/06 14:12:52;;;;;;;17.43;12.27;;;;;;;4.60;100.00;99972.30;2805358;83;21108;-89
2022/12/06 14:17:00;;;;;;;16.32;12.28;;;;;;;4.69;100.00;99975.20;2796447;83;21109;-88
2022/12/06 14:21:01;;;;;;;14.78;12.18;;;;;;;4.79;100.00;99977.28;2734900;85;21660;-89
2022/12/06 14:25:27;;;;;;;18.10;12.65;;;;;;;4.81;100.00;99977.54;2770873;84;21047;-89
2022/12/06 14:29:28;;;;;;;15.95;13.25;;;;;;;4.91;100.00;99976.48;2744056;84;21046;-89
2022/12/06 14:33:29;;;;;;;17.12;14.05;;;;;;;5.02;100.00;99973.66;2769353;82;21015;-89
2022/12/06 14:37:30;;;;;;;22.15;13.65;;;;;;;5.03;100.00;99975.34;2749236;84;21041;-89
2022/12/06 14:46:04;;;;;;;19.23;15.18;;;;;;;4.99;100.00;99974.23;2767559;84;21569;-88
2022/12/06 14:50:28;;;;;;;23.32;15.78;;;;;;;4.91;100.00;99972.53;2772006;84;21082;-88
2022/12/06 14:54:43;;;;;;;19.98;14.10;;;;;;;4.85;100.00;99979.52;2770445;85;21650;-86
2022/12/06 14:58:45;;;;;;;17.42;12.98;;;;;;;4.86;100.00;99978.13;2771907;84;21523;-86
2022/12/06 15:03:11;;;;;;;25.70;17.60;;;;;;;4.91;100.00;99971.22;2772137;84;21023;-87
2022/12/06 15:07:33;;;;;;;20.57;15.18;;;;;;;4.82;100.00;99972.67;2772817;85;21106;-87
2022/12/06 15:16:11;;;;;;;18.45;13.55;;;;;;;4.77;100.00;99974.73;2767126;84;21031;-87
2022/12/06 15:20:14;;;;;;;28.20;17.50;;;;;;;4.71;100.00;99973.80;2766608;84;21033;-87
2022/12/06 15:24:23;;;;;;;20.12;15.98;;;;;;;4.74;100.00;99971.46;2773861;84;21702;-87
2022/12/06 15:28:24;;;;;;;21.77;13.40;;;;;;;4.73;100.00;99964.50;2748107;85;21491;-88
2022/12/06 15:32:26;;;;;;;21.50;14.18;;;;;;;4.79;100.00;99960.16;2730865;85;21015;-87
2022/12/06 15:36:32;;;;;;;19.50;12.78;;;;;;;4.70;100.00;99957.13;2773142;84;21023;-86
2022/12/06 15:40:34;;;;;;;18.48;12.03;;;;;;;4.67;100.00;99953.38;2771951;84;21339;-87
2022/12/06 15:44:35;;;;;;;15.45;12.58;;;;;;;4.56;100.00;99944.83;2773776;84;21022;-89
2022/12/06 15:48:37;;;;;;;14.38;11.35;;;;;;;4.55;100.00;99944.94;2773503;85;21050;-90
2022/12/06 15:52:38;;;;;;;15.25;11.85;;;;;;;4.55;100.00;99948.89;2772624;85;21420;-89
2022/12/06 15:56:39;;;;;;;13.35;12.00;;;;;;;4.54;100.00;99940.61;2777626;84;21052;-89
2022/12/06 16:00:40;;;;;;;15.93;13.38;;;;;;;4.58;100.00;99938.16;2730895;85;21031;-87
2022/12/06 16:04:42;;;;;;;17.77;11.53;;;;;;;4.53;100.00;99936.30;2770629;84;21039;-88
2022/12/06 16:08:45;;;;;;;15.60;13.10;;;;;;;4.52;100.00;99930.62;2771652;84;21051;-88
2022/12/06 16:17:06;;;;;;;15.88;11.63;;;;;;;4.50;100.00;99939.09;2770487;84;21547;-87
2022/12/06 16:21:09;;;;;;;16.77;12.95;;;;;;;4.39;100.00;99935.80;2769304;83;21034;-90
2022/12/06 16:25:11;;;;;;;21.45;13.88;;;;;;;4.46;100.00;99937.59;2740078;84;29618;-87
2022/12/06 16:29:22;;;;;;;19.50;15.10;;;;;;;4.46;100.00;99938.45;2752814;84;21605;-87
2022/12/06 16:33:27;;;;;;;18.75;14.40;;;;;;;4.52;100.00;99940.70;2776622;84;21047;-89
2022/12/06 16:37:28;;;;;;;22.62;13.08;;;;;;;4.51;100.00;99942.09;2774226;84;21612;-88
2022/12/06 16:41:34;;;;;;;18.87;12.58;;;;;;;4.50;100.00;99942.59;2772485;84;21031;-87
2022/12/06 16:45:40;;;;;;;22.70;13.40;;;;;;;4.50;100.00;99935.14;2771115;84;21051;-88
2022/12/06 16:49:41;;;;;;;14.45;12.18;;;;;;;4.43;100.00;99943.43;2777601;84;21003;-89
2022/12/06 16:53:42;;;;;;;24.18;12.88;;;;;;;4.38;100.00;99947.28;2749510;84;21523;-88
2022/12/06 16:57:44;;;;;;;21.68;14.25;;;;;;;4.40;100.00;99942.31;2745651;84;20975;-88
2022/12/06 17:01:52;;;;;;;19.35;14.68;;;;;;;4.41;100.00;99942.69;2766879;84;21552;-89
2022/12/06 17:05:53;;;;;;;20.62;14.25;;;;;;;4.39;100.00;99936.67;2816703;83;20998;-87
2022/12/06 17:09:54;;;;;;;20.20;14.47;;;;;;;4.36;100.00;99935.55;2811982;83;21009;-88
2022/12/06 17:13:55;;;;;;;25.08;16.60;;;;;;;4.28;100.00;99939.09;2819252;83;20987;-88
2022/12/06 17:17:57;;;;;;;18.82;14.90;;;;;;;4.33;100.00;99935.73;2817317;82;20990;-87
2022/12/06 17:22:06;;;;;;;17.55;13.28;;;;;;;4.40;100.00;99936.18;2818318;82;21053;-86
2022/12/06 17:26:02;;;;;;;22.62;16.70;;;;;;;4.35;100.00;99933.85;2816820;82;21207;-89
2022/12/06 17:30:08;;;;;;;16.97;15.13;;;;;;;4.39;100.00;99935.34;2815674;83;21041;-88
2022/12/06 17:34:12;;;;;;;15.85;13.65;;;;;;;4.43;100.00;99939.48;2807435;84;21020;-88
2022/12/06 17:38:14;;;;;;;19.52;13.93;;;;;;;4.43;100.00;99939.97;2806956;83;20990;-89
2022/12/06 17:46:38;;;;;;;24.60;18.57;;;;;;;4.36;100.00;99933.37;2804608;83;21053;-89
2022/12/06 17:50:39;;;;;;;25.88;17.15;;;;;;;4.37;100.00;99941.64;2804506;83;21081;-90
2022/12/06 17:54:40;;;;;;;22.10;16.32;;;;;;;4.37;100.00;99939.00;2779840;83;21065;-89
2022/12/06 17:58:42;;;;;;;29.72;15.93;;;;;;;4.34;100.00;99942.70;2806728;84;21645;-88
2022/12/06 18:02:43;;;;;;;28.70;18.30;;;;;;;4.22;100.00;99945.58;2806901;83;21090;-89
2022/12/06 18:06:45;;;;;;;21.48;16.42;;;;;;;4.29;100.00;99938.16;2830216;83;21105;-90
2022/12/06 18:10:46;;;;;;;21.55;16.40;;;;;;;4.28;100.00;99937.33;2811464;83;21673;-89
2022/12/06 18:14:47;;;;;;;25.55;16.15;;;;;;;4.29;100.00;99939.02;2812741;83;21066;-89
2022/12/06 18:18:52;;;;;;;24.65;17.60;;;;;;;4.30;100.00;99933.27;2812928;83;21044;-89
2022/12/06 18:22:54;;;;;;;21.48;14.80;;;;;;;4.31;100.00;99933.64;2783394;83;21004;-93
2022/12/06 18:26:55;;;;;;;20.68;15.43;;;;;;;4.32;100.00;99932.70;2809991;83;21090;-90
2022/12/06 18:30:56;;;;;;;23.80;16.52;;;;;;;4.48;100.00;99933.08;2811140;83;21133;-90
2022/12/06 18:34:58;;;;;;;21.10;15.68;;;;;;;4.48;100.00;99933.08;2801126;83;21617;-90
2022/12/06 18:39:01;;;;;;;26.00;18.52;;;;;;;4.41;100.00;99925.56;2825114;83;21041;-91
2022/12/06 18:43:02;;;;;;;20.23;16.45;;;;;;;4.35;100.00;99932.53;2818734;83;21018;-92
2022/12/06 18:47:04;;;;;;;23.57;15.08;;;;;;;4.28;100.00;99931.20;2822910;82;21084;-89
2022/12/06 18:51:07;;;;;;;26.48;14.40;;;;;;;4.26;100.00;99937.03;2815500;82;21010;-90
2022/12/06 18:55:09;;;;;;;19.17;13.38;;;;;;;4.27;100.00;99929.51;2807466;83;21003;-91
2022/12/06 18:59:11;;;;;;;21.52;14.07;;;;;;;4.18;100.00;99932.23;2802986;81;21518;-88
2022/12/06 19:03:12;;;;;;;25.72;16.35;;;;;;;4.22;100.00;99936.84;2743888;85;21094;-89
2022/12/06 19:07:13;;;;;;;17.50;12.98;;;;;;;4.21;100.00;99928.58;2756780;85;21066;-88
2022/12/06 19:11:18;;;;;;;18.67;12.78;;;;;;;4.22;100.00;99935.53;2721304;85;21519;-88
2022/12/06 19:15:20;;;;;;;20.45;13.25;;;;;;;4.21;100.00;99935.16;2773399;84;21066;-91
2022/12/06 19:19:23;;;;;;;16.93;11.88;;;;;;;4.20;100.00;99932.98;2788811;84;20984;-91
2022/12/06 19:23:27;;;;;;;15.03;11.38;;;;;;;4.23;100.00;99927.55;2791612;84;20995;-89
2022/12/06 19:27:28;;;;;;;21.20;13.43;;;;;;;4.23;100.00;99924.92;2772427;84;21035;-90
2022/12/06 19:31:30;;;;;;;20.62;14.03;;;;;;;4.25;100.00;99931.39;2779455;84;20999;-91
2022/12/06 19:35:31;;;;;;;16.55;13.05;;;;;;;4.29;100.00;99930.26;2731395;85;21039;-89
2022/12/06 19:39:32;;;;;;;18.98;12.40;;;;;;;4.24;100.00;99926.61;2792828;84;21007;-90